createdAt,value
2023-03-21T00:02:01.576Z,97393.91
2023-03-21T00:04:40.901Z,97393.63
2023-03-21T00:07:13.935Z,97393.16
2023-03-21T00:09:42.855Z,97389.44
2023-03-21T00:12:12.375Z,97394.31
2023-03-21T00:14:41.361Z,97390.28
2023-03-21T00:17:11.414Z,97393.09
2023-03-21T00:19:41.926Z,97396.16
2023-03-21T00:22:10.979Z,97401.84
2023-03-21T00:24:39.981Z,97407.00
2023-03-21T00:27:39.736Z,97410.56
2023-03-21T00:29:58.045Z,97405.56
2023-03-21T00:32:27.367Z,97402.41
2023-03-21T00:35:16.306Z,97406.78
2023-03-21T00:37:46.819Z,97403.91
2023-03-21T00:40:25.736Z,97412.63
2023-03-21T00:42:58.270Z,97412.31
2023-03-21T00:45:28.514Z,97415.47
2023-03-21T00:47:57.871Z,97419.72
2023-03-21T00:50:27.194Z,97415.41
2023-03-21T00:52:57.136Z,97417.66
2023-03-21T00:55:27.329Z,97414.72
2023-03-21T00:58:02.118Z,97413.28
2023-03-21T01:00:33.786Z,97412.94
2023-03-21T01:03:21.353Z,97412.47
2023-03-21T01:06:06.263Z,97425.03
2023-03-21T01:08:51.187Z,97429.38
2023-03-21T01:11:26.867Z,97430.72
2023-03-21T01:14:07.255Z,97437.66
2023-03-21T01:16:44.504Z,97434.66
2023-03-21T01:19:25.135Z,97437.66
2023-03-21T01:21:56.594Z,97437.25
2023-03-21T01:24:26.507Z,97445.31
2023-03-21T01:26:55.264Z,97448.22
2023-03-21T01:29:24.237Z,97442.03
2023-03-21T01:31:53.469Z,97450.03
2023-03-21T01:34:22.850Z,97459.97
2023-03-21T01:36:51.661Z,97458.91
2023-03-21T01:39:22.180Z,97467.97
2023-03-21T01:41:52.439Z,97465.63
2023-03-21T01:44:27.145Z,97465.94
2023-03-21T01:47:09.981Z,97476.03
2023-03-21T01:50:02.991Z,97470.50
2023-03-21T01:52:47.355Z,97479.88
2023-03-21T01:55:19.891Z,97479.00
2023-03-21T01:58:21.403Z,97469.13
2023-03-21T02:01:28.975Z,97481.06
2023-03-21T02:04:04.191Z,97471.88
2023-03-21T02:06:44.873Z,97480.22
2023-03-21T02:09:28.848Z,97484.66
2023-03-21T02:11:57.826Z,97485.22
2023-03-21T02:14:35.258Z,97480.34
2023-03-21T02:17:44.200Z,97486.75
2023-03-21T02:20:52.831Z,97486.34
2023-03-21T02:23:26.647Z,97488.47
2023-03-21T02:26:26.383Z,97492.06
2023-03-21T02:29:03.563Z,97496.22
2023-03-21T02:32:22.731Z,97493.41
2023-03-21T02:35:22.253Z,97496.25
2023-03-21T02:38:17.384Z,97506.78
2023-03-21T02:40:48.854Z,97498.16
2023-03-21T02:43:37.748Z,97497.69
2023-03-21T02:46:15.467Z,97486.78
2023-03-21T02:49:15.378Z,97492.03
2023-03-21T02:51:48.047Z,97500.94
2023-03-21T02:54:35.020Z,97491.56
2023-03-21T02:57:09.978Z,97495.69
2023-03-21T02:59:51.629Z,97483.81
2023-03-21T03:02:30.235Z,97494.44
2023-03-21T03:05:02.881Z,97475.00
2023-03-21T03:08:17.170Z,97479.94
2023-03-21T03:11:10.867Z,97480.97
2023-03-21T03:14:15.852Z,97480.94
2023-03-21T03:17:23.843Z,97484.28
2023-03-21T03:19:52.944Z,97482.03
2023-03-21T03:22:47.449Z,97479.25
2023-03-21T03:25:32.651Z,97494.13
2023-03-21T03:28:09.798Z,97491.09
2023-03-21T03:30:44.976Z,97483.19
2023-03-21T03:33:24.343Z,97492.03
2023-03-21T03:36:05.068Z,97483.56
2023-03-21T03:38:38.316Z,97484.78
2023-03-21T03:41:20.461Z,97481.19
2023-03-21T03:43:58.613Z,97478.44
2023-03-21T03:46:34.006Z,97475.94
2023-03-21T03:49:09.904Z,97486.50
2023-03-21T03:51:57.353Z,97486.00
2023-03-21T03:54:50.378Z,97480.78
2023-03-21T03:57:21.088Z,97479.72
2023-03-21T03:59:50.071Z,97483.97
2023-03-21T04:02:22.357Z,97475.88
2023-03-21T04:04:54.071Z,97465.63
2023-03-21T04:07:23.822Z,97477.28
2023-03-21T04:09:55.546Z,97467.19
2023-03-21T04:12:25.354Z,97462.59
2023-03-21T04:15:13.727Z,97466.13
2023-03-21T04:17:47.838Z,97461.72
2023-03-21T04:20:26.830Z,97459.59
2023-03-21T04:23:05.595Z,97457.31
2023-03-21T04:25:40.261Z,97468.09
2023-03-21T04:28:09.476Z,97470.75
2023-03-21T04:30:58.776Z,97467.06
2023-03-21T04:33:32.746Z,97465.44
2023-03-21T04:36:01.506Z,97462.47
2023-03-21T04:38:34.354Z,97464.41
2023-03-21T04:41:05.725Z,97460.00
2023-03-21T04:43:34.529Z,97455.28
2023-03-21T04:46:04.704Z,97453.50
2023-03-21T04:48:36.185Z,97462.50
2023-03-21T04:51:05.038Z,97460.56
2023-03-21T04:53:34.052Z,97464.91
2023-03-21T04:56:03.237Z,97461.25
2023-03-21T04:58:32.247Z,97447.09
2023-03-21T05:01:03.343Z,97440.53
2023-03-21T05:03:35.132Z,97439.03
2023-03-21T05:06:04.676Z,97436.31
2023-03-21T05:08:33.456Z,97436.16
2023-03-21T05:11:03.819Z,97439.91
2023-03-21T05:13:32.862Z,97437.00
2023-03-21T05:16:01.816Z,97424.78
2023-03-21T05:18:30.998Z,97432.63
2023-03-21T05:21:12.222Z,97428.81
2023-03-21T05:23:44.571Z,97423.41
2023-03-21T05:26:13.401Z,97427.78
2023-03-21T05:28:53.943Z,97415.94
2023-03-21T05:31:23.674Z,97421.72
2023-03-21T05:33:59.527Z,97404.16
2023-03-21T05:36:29.537Z,97422.47
2023-03-21T05:38:58.373Z,97403.00
2023-03-21T05:41:27.440Z,97410.78
2023-03-21T05:43:57.302Z,97392.09
2023-03-21T05:46:27.756Z,97374.03
2023-03-21T05:48:57.074Z,97409.22
2023-03-21T05:51:28.850Z,97394.38
2023-03-21T05:53:58.678Z,97405.03
2023-03-21T05:56:27.522Z,97393.25
2023-03-21T05:59:01.097Z,97391.81
2023-03-21T06:01:32.623Z,97385.38
2023-03-21T06:04:12.800Z,97385.06
2023-03-21T06:06:42.914Z,97388.84
2023-03-21T06:09:11.671Z,97382.50
2023-03-21T06:11:47.715Z,97386.97
2023-03-21T06:14:35.026Z,97373.06
2023-03-21T06:17:17.468Z,97376.25
2023-03-21T06:20:12.224Z,97371.53
2023-03-21T06:22:54.343Z,97366.66
2023-03-21T06:25:23.940Z,97383.41
2023-03-21T06:27:52.976Z,97374.50
2023-03-21T06:30:22.901Z,97372.94
2023-03-21T06:33:14.873Z,97376.88
2023-03-21T06:35:45.012Z,97367.00
2023-03-21T06:38:13.851Z,97374.81
2023-03-21T06:40:42.705Z,97370.09
2023-03-21T06:43:11.522Z,97371.59
2023-03-21T06:45:41.637Z,97356.53
2023-03-21T06:48:12.950Z,97357.94
2023-03-21T06:50:59.939Z,97366.53
2023-03-21T06:53:31.968Z,97365.28
2023-03-21T06:56:22.558Z,97355.88
2023-03-21T06:58:51.455Z,97357.25
2023-03-21T07:01:43.473Z,97332.03
2023-03-21T07:04:12.528Z,97348.94
2023-03-21T07:06:41.406Z,97355.38
2023-03-21T07:09:12.622Z,97361.13
2023-03-21T07:11:42.099Z,97346.34
2023-03-21T07:14:11.620Z,97354.94
2023-03-21T07:16:41.879Z,97351.53
2023-03-21T07:19:11.224Z,97359.56
2023-03-21T07:21:40.122Z,97349.91
2023-03-21T07:24:09.329Z,97352.69
2023-03-21T07:26:39.695Z,97353.53
2023-03-21T07:29:08.791Z,97344.53
2023-03-21T07:31:40.618Z,97345.22
2023-03-21T07:34:09.511Z,97342.22
2023-03-21T07:36:38.851Z,97346.09
2023-03-21T07:39:08.729Z,97352.50
2023-03-21T07:41:37.531Z,97356.44
2023-03-21T07:44:20.832Z,97354.19
2023-03-21T07:46:50.119Z,97344.00
2023-03-21T07:49:21.160Z,97342.03
2023-03-21T07:51:49.921Z,97351.41
2023-03-21T07:54:21.543Z,97336.78
2023-03-21T07:56:50.525Z,97349.81
2023-03-21T07:59:19.317Z,97332.19
2023-03-21T08:01:48.759Z,97331.84
2023-03-21T08:04:17.910Z,97323.81
2023-03-21T08:06:46.699Z,97337.84
2023-03-21T08:09:15.605Z,97347.78
2023-03-21T08:11:44.331Z,97345.34
2023-03-21T08:14:13.157Z,97340.81
2023-03-21T08:16:42.112Z,97353.09
2023-03-21T08:19:10.957Z,97340.53
2023-03-21T08:21:39.896Z,97346.63
2023-03-21T08:24:09.135Z,97345.59
2023-03-21T08:26:38.833Z,97338.03
2023-03-21T08:29:07.920Z,97345.28
2023-03-21T08:31:37.069Z,97329.13
2023-03-21T08:34:05.849Z,97326.94
2023-03-21T08:36:37.430Z,97333.75
2023-03-21T08:39:07.324Z,97336.59
2023-03-21T08:41:37.804Z,97344.72
2023-03-21T08:44:07.597Z,97341.72
2023-03-21T08:46:36.320Z,97340.78
2023-03-21T08:49:05.163Z,97337.72
2023-03-21T08:51:34.326Z,97325.22
2023-03-21T08:54:03.065Z,97327.00
2023-03-21T08:56:32.117Z,97320.34
2023-03-21T08:59:03.520Z,97331.69
2023-03-21T09:01:33.468Z,97325.88
2023-03-21T09:04:02.430Z,97327.47
2023-03-21T09:06:31.490Z,97328.78
2023-03-21T09:09:01.093Z,97338.72
2023-03-21T09:11:30.283Z,97339.59
2023-03-21T09:13:58.992Z,97333.00
2023-03-21T09:16:27.781Z,97340.31
2023-03-21T09:18:57.716Z,97331.09
2023-03-21T09:21:28.535Z,97341.66
2023-03-21T09:24:00.047Z,97337.69
2023-03-21T09:26:29.300Z,97342.66
2023-03-21T09:28:59.266Z,97343.03
2023-03-21T09:31:28.902Z,97341.78
2023-03-21T09:33:58.694Z,97349.34
2023-03-21T09:36:27.830Z,97349.19
2023-03-21T09:38:57.878Z,97339.72
2023-03-21T09:41:42.798Z,97343.88
2023-03-21T09:44:32.894Z,97351.31
2023-03-21T09:47:14.686Z,97361.00
2023-03-21T09:49:49.884Z,97350.63
2023-03-21T09:52:53.802Z,97354.91
2023-03-21T09:55:32.212Z,97363.56
2023-03-21T09:58:07.518Z,97362.19
2023-03-21T10:00:46.498Z,97360.94
2023-03-21T10:03:26.895Z,97364.75
2023-03-21T10:05:59.356Z,97358.91
2023-03-21T10:08:37.116Z,97361.53
2023-03-21T10:11:09.155Z,97364.16
2023-03-21T10:14:13.983Z,97366.47
2023-03-21T10:16:45.438Z,97365.78
2023-03-21T10:19:19.648Z,97370.91
2023-03-21T10:22:05.948Z,97360.06
2023-03-21T10:24:35.990Z,97375.84
2023-03-21T10:27:05.950Z,97368.50
2023-03-21T10:29:45.204Z,97363.38
2023-03-21T10:32:18.244Z,97376.84
2023-03-21T10:34:52.238Z,97373.81
2023-03-21T10:37:21.447Z,97367.38
2023-03-21T10:39:52.869Z,97377.75
2023-03-21T10:42:29.139Z,97382.94
2023-03-21T10:44:58.540Z,97375.63
2023-03-21T10:47:35.692Z,97373.59
2023-03-21T10:50:12.777Z,97381.03
2023-03-21T10:52:50.507Z,97392.03
2023-03-21T10:55:32.599Z,97399.41
2023-03-21T10:58:09.088Z,97396.91
2023-03-21T11:00:42.360Z,97397.19
2023-03-21T11:03:31.914Z,97401.28
2023-03-21T11:06:07.758Z,97399.81
2023-03-21T11:09:06.601Z,97400.31
2023-03-21T11:11:39.730Z,97400.25
2023-03-21T11:14:25.372Z,97397.91
2023-03-21T11:16:54.204Z,97407.22
2023-03-21T11:19:34.302Z,97411.69
2023-03-21T11:22:09.692Z,97415.34
2023-03-21T11:24:38.764Z,97410.94
2023-03-21T11:27:09.378Z,97414.97
2023-03-21T11:29:46.406Z,97414.44
2023-03-21T11:32:36.029Z,97420.09
2023-03-21T11:35:21.306Z,97408.50
2023-03-21T11:37:55.460Z,97415.31
2023-03-21T11:40:40.115Z,97426.78
2023-03-21T11:43:18.684Z,97423.56
2023-03-21T11:45:58.094Z,97413.34
2023-03-21T11:48:27.947Z,97429.00
2023-03-21T11:51:38.230Z,97422.56
2023-03-21T11:54:20.075Z,97429.38
2023-03-21T11:56:53.425Z,97429.41
2023-03-21T11:59:37.083Z,97430.81
2023-03-21T12:02:38.203Z,97435.19
2023-03-21T12:05:38.495Z,97445.03
2023-03-21T12:08:13.558Z,97449.81
2023-03-21T12:10:54.777Z,97441.41
2023-03-21T12:13:42.294Z,97448.81
2023-03-21T12:17:07.307Z,97447.19
2023-03-21T12:20:01.520Z,97445.38
2023-03-21T12:23:02.300Z,97445.56
2023-03-21T12:25:43.246Z,97439.34
2023-03-21T12:28:31.932Z,97450.38
2023-03-21T12:31:26.423Z,97454.00
2023-03-21T12:34:02.868Z,97442.13
2023-03-21T12:36:48.758Z,97449.56
2023-03-21T12:39:32.838Z,97454.75
2023-03-21T12:42:45.514Z,97453.50
2023-03-21T12:45:29.470Z,97450.06
2023-03-21T12:48:12.987Z,97450.88
2023-03-21T12:50:43.505Z,97454.25
2023-03-21T12:53:45.960Z,97462.03
2023-03-21T12:56:21.219Z,97461.81
2023-03-21T12:58:59.672Z,97469.16
2023-03-21T13:01:32.009Z,97466.91
2023-03-21T13:04:20.372Z,97472.25
2023-03-21T13:06:53.316Z,97476.22
2023-03-21T13:09:37.630Z,97480.25
2023-03-21T13:12:35.142Z,97482.44
2023-03-21T13:15:24.420Z,97477.75
2023-03-21T13:18:21.539Z,97479.31
2023-03-21T13:20:52.570Z,97481.97
2023-03-21T13:23:34.391Z,97477.75
2023-03-21T13:26:03.898Z,97480.13
2023-03-21T13:28:35.946Z,97488.75
2023-03-21T13:31:21.563Z,97485.31
2023-03-21T13:33:52.001Z,97483.91
2023-03-21T13:36:32.899Z,97484.84
2023-03-21T13:39:06.179Z,97477.41
2023-03-21T13:41:41.259Z,97483.19
2023-03-21T13:44:49.646Z,97491.00
2023-03-21T13:47:40.101Z,97482.13
2023-03-21T13:50:23.652Z,97486.34
2023-03-21T13:53:17.116Z,97499.56
2023-03-21T13:55:58.210Z,97502.25
2023-03-21T13:58:39.460Z,97504.00
2023-03-21T14:01:38.560Z,97501.16
2023-03-21T14:04:18.207Z,97502.28
2023-03-21T14:06:57.440Z,97501.84
2023-03-21T14:09:37.296Z,97507.59
2023-03-21T14:12:12.223Z,97511.19
2023-03-21T14:15:28.274Z,97510.19
2023-03-21T14:18:06.480Z,97515.22
2023-03-21T14:20:45.194Z,97510.09
2023-03-21T14:23:18.096Z,97510.09
2023-03-21T14:25:49.973Z,97515.91
2023-03-21T14:28:20.911Z,97516.88
2023-03-21T14:30:56.969Z,97521.66
2023-03-21T14:33:42.142Z,97511.19
2023-03-21T14:36:43.133Z,97519.78
2023-03-21T14:39:24.621Z,97515.41
2023-03-21T14:42:03.446Z,97525.44
2023-03-21T14:44:53.597Z,97526.84
2023-03-21T14:47:26.680Z,97522.00
2023-03-21T14:49:57.456Z,97529.19
2023-03-21T14:52:32.863Z,97522.75
2023-03-21T14:55:06.015Z,97526.34
2023-03-21T14:57:34.823Z,97526.16
2023-03-21T15:00:14.548Z,97530.00
2023-03-21T15:02:47.295Z,97523.22
2023-03-21T15:05:40.149Z,97535.38
2023-03-21T15:08:18.336Z,97529.31
2023-03-21T15:11:07.117Z,97540.50
2023-03-21T15:13:55.543Z,97530.75
2023-03-21T15:16:24.717Z,97535.31
2023-03-21T15:18:54.125Z,97546.78
2023-03-21T15:21:31.014Z,97536.97
2023-03-21T15:24:14.198Z,97552.94
2023-03-21T15:26:48.190Z,97553.53
2023-03-21T15:29:19.135Z,97551.94
2023-03-21T15:31:49.040Z,97546.09
2023-03-21T15:34:30.534Z,97551.06
2023-03-21T15:37:07.235Z,97554.22
2023-03-21T15:39:39.034Z,97555.03
2023-03-21T15:42:26.158Z,97554.22
2023-03-21T15:44:59.015Z,97564.63
2023-03-21T15:47:50.039Z,97565.00
2023-03-21T15:50:25.483Z,97561.28
2023-03-21T15:52:55.608Z,97557.34
2023-03-21T15:55:29.516Z,97569.91
2023-03-21T15:58:05.470Z,97558.78
2023-03-21T16:00:39.728Z,97562.41
2023-03-21T16:03:22.838Z,97568.84
2023-03-21T16:06:15.985Z,97565.88
2023-03-21T16:09:05.854Z,97570.00
2023-03-21T16:11:49.880Z,97555.13
2023-03-21T16:14:20.633Z,97564.53
2023-03-21T16:16:50.541Z,97567.94
2023-03-21T16:19:19.719Z,97567.31
2023-03-21T16:21:48.657Z,97564.91
2023-03-21T16:24:18.164Z,97560.69
2023-03-21T16:26:51.724Z,97568.66
2023-03-21T16:29:21.488Z,97559.25
2023-03-21T16:31:50.376Z,97568.56
2023-03-21T16:34:19.411Z,97570.38
2023-03-21T16:36:48.229Z,97571.72
2023-03-21T16:39:17.719Z,97571.44
2023-03-21T16:41:47.376Z,97570.88
2023-03-21T16:44:16.233Z,97569.53
2023-03-21T16:46:45.337Z,97567.50
2023-03-21T16:49:28.322Z,97566.16
2023-03-21T16:51:58.151Z,97567.47
2023-03-21T16:54:27.616Z,97561.91
2023-03-21T16:56:56.820Z,97575.59
2023-03-21T16:59:26.189Z,97577.09
2023-03-21T17:01:56.798Z,97570.03
2023-03-21T17:04:26.048Z,97579.63
2023-03-21T17:06:56.000Z,97581.38
2023-03-21T17:09:27.856Z,97581.75
2023-03-21T17:11:57.103Z,97590.56
2023-03-21T17:14:26.076Z,97590.28
2023-03-21T17:16:55.723Z,97589.47
2023-03-21T17:19:27.049Z,97579.09
2023-03-21T17:21:56.064Z,97583.31
2023-03-21T17:24:27.174Z,97577.47
2023-03-21T17:26:56.344Z,97582.38
2023-03-21T17:29:25.027Z,97589.06
2023-03-21T17:31:54.116Z,97589.63
2023-03-21T17:34:22.868Z,97590.31
2023-03-21T17:36:52.262Z,97585.53
2023-03-21T17:39:24.751Z,97584.25
2023-03-21T17:41:54.329Z,97584.25
2023-03-21T17:44:24.129Z,97584.56
2023-03-21T17:46:54.136Z,97581.78
2023-03-21T17:49:23.619Z,97584.38
2023-03-21T17:51:52.847Z,97581.66
2023-03-21T17:54:21.838Z,97582.13
2023-03-21T17:56:50.678Z,97581.97
2023-03-21T17:59:19.730Z,97582.28
2023-03-21T18:01:49.771Z,97588.91
2023-03-21T18:04:20.432Z,97589.38
2023-03-21T18:06:49.493Z,97589.56
2023-03-21T18:09:21.720Z,97584.56
2023-03-21T18:11:50.938Z,97591.44
2023-03-21T18:14:27.878Z,97593.06
2023-03-21T18:16:58.046Z,97589.03
2023-03-21T18:19:28.187Z,97598.31
2023-03-21T18:21:57.267Z,97591.69
2023-03-21T18:24:26.574Z,97587.66
2023-03-21T18:26:55.723Z,97597.41
2023-03-21T18:32:13.506Z,97600.72
2023-03-21T18:34:42.332Z,97604.47
2023-03-21T18:37:13.371Z,97597.06
2023-03-21T18:39:44.494Z,97594.13
2023-03-21T18:42:20.543Z,97587.97
2023-03-21T18:44:52.970Z,97595.38
2023-03-21T18:47:21.966Z,97592.66
2023-03-21T18:50:14.103Z,97603.50
2023-03-21T18:52:40.608Z,97593.81
2023-03-21T18:55:11.127Z,97605.50
2023-03-21T18:57:41.439Z,97603.75
2023-03-21T19:00:17.689Z,97607.53
2023-03-21T19:02:50.826Z,97605.13
2023-03-21T19:05:23.787Z,97601.28
2023-03-21T19:07:53.760Z,97610.00
2023-03-21T19:10:24.927Z,97604.50
2023-03-21T19:12:55.443Z,97616.66
2023-03-21T19:15:25.236Z,97622.47
2023-03-21T19:18:30.758Z,97623.47
2023-03-21T19:20:46.666Z,97618.28
2023-03-21T19:23:17.296Z,97615.88
2023-03-21T19:25:47.399Z,97606.69
2023-03-21T19:28:16.615Z,97608.13
2023-03-21T19:30:50.116Z,97613.16
2023-03-21T19:33:20.655Z,97614.31
2023-03-21T19:36:08.853Z,97614.66
2023-03-21T19:38:40.573Z,97615.34
2023-03-21T19:41:09.539Z,97614.69
2023-03-21T19:43:40.228Z,97605.97
2023-03-21T19:46:10.407Z,97605.16
2023-03-21T19:48:41.833Z,97613.72
2023-03-21T19:51:27.564Z,97615.97
2023-03-21T19:53:58.026Z,97618.06
2023-03-21T19:56:28.429Z,97609.53
2023-03-21T19:58:57.618Z,97624.53
2023-03-21T20:01:28.360Z,97622.28
2023-03-21T20:03:57.963Z,97627.00
2023-03-21T20:06:27.890Z,97632.78
2023-03-21T20:11:46.534Z,97620.19
2023-03-21T20:14:15.562Z,97624.25
2023-03-21T20:16:44.369Z,97621.31
2023-03-21T20:19:16.586Z,97627.63
2023-03-21T20:21:52.883Z,97622.94
2023-03-21T20:24:25.417Z,97635.38
2023-03-21T20:26:54.270Z,97631.00
2023-03-21T20:30:08.071Z,97630.72
2023-03-21T20:32:12.081Z,97633.75
2023-03-21T20:34:41.186Z,97634.88
2023-03-21T20:37:11.421Z,97626.31
2023-03-21T20:39:40.268Z,97634.41
2023-03-21T20:42:09.254Z,97634.41
2023-03-21T20:44:56.878Z,97632.47
2023-03-21T20:47:26.957Z,97629.72
2023-03-21T20:49:59.027Z,97636.50
2023-03-21T20:52:57.517Z,97630.03
2023-03-21T20:55:18.602Z,97629.25
2023-03-21T20:57:48.626Z,97637.31
2023-03-21T21:00:18.968Z,97634.88
2023-03-21T21:02:49.390Z,97635.06
2023-03-21T21:05:35.709Z,97636.84
2023-03-21T21:08:06.123Z,97642.31
2023-03-21T21:10:44.828Z,97638.28
2023-03-21T21:13:22.478Z,97644.56
2023-03-21T21:15:52.137Z,97644.66
2023-03-21T21:18:21.671Z,97645.00
2023-03-21T21:21:05.699Z,97640.47
2023-03-21T21:23:39.603Z,97646.94
2023-03-21T21:26:09.908Z,97650.78
2023-03-21T21:28:38.988Z,97642.84
2023-03-21T21:31:15.107Z,97651.06
2023-03-21T21:33:45.475Z,97649.44
2023-03-21T21:36:14.589Z,97653.31
2023-03-21T21:38:43.653Z,97655.44
2023-03-21T21:41:19.092Z,97656.75
2023-03-21T21:43:48.308Z,97663.53
2023-03-21T21:46:17.615Z,97668.22
2023-03-21T21:48:46.819Z,97660.78
2023-03-21T21:51:18.645Z,97670.47
2023-03-21T21:53:50.533Z,97666.72
2023-03-21T21:56:19.283Z,97661.22
2023-03-21T21:58:48.166Z,97672.03
2023-03-21T22:01:17.995Z,97673.63
2023-03-21T22:03:47.890Z,97680.66
2023-03-21T22:06:16.694Z,97680.28
2023-03-21T22:08:47.594Z,97675.09
2023-03-21T22:11:16.575Z,97674.44
2023-03-21T22:13:46.186Z,97675.41
2023-03-21T22:16:15.035Z,97687.34
2023-03-21T22:18:44.071Z,97683.47
2023-03-21T22:21:12.891Z,97689.88
2023-03-21T22:23:44.543Z,97695.19
2023-03-21T22:26:14.812Z,97695.19
2023-03-21T22:28:43.792Z,97695.19
2023-03-21T22:31:16.137Z,97695.84
2023-03-21T22:33:46.094Z,97694.56
2023-03-21T22:36:20.817Z,97710.13
2023-03-21T22:38:49.727Z,97710.63
2023-03-21T22:41:18.925Z,97719.31
2023-03-21T22:43:47.781Z,97712.19
2023-03-21T22:46:16.774Z,97711.34
2023-03-21T22:48:46.100Z,97719.81
2023-03-21T22:51:15.027Z,97725.44
2023-03-21T22:53:43.823Z,97722.66
2023-03-21T22:56:12.504Z,97725.03
2023-03-21T22:58:41.248Z,97738.25
2023-03-21T23:01:10.910Z,97735.97
2023-03-21T23:03:39.867Z,97743.72
2023-03-21T23:06:09.152Z,97745.47
2023-03-21T23:08:38.130Z,97743.88
2023-03-21T23:11:10.270Z,97737.66
2023-03-21T23:13:41.796Z,97746.50
2023-03-21T23:16:10.666Z,97752.34
2023-03-21T23:18:39.451Z,97747.66
2023-03-21T23:21:13.703Z,97753.72
2023-03-21T23:23:44.233Z,97756.19
2023-03-21T23:26:13.205Z,97765.94
2023-03-21T23:28:41.927Z,97755.88
2023-03-21T23:31:13.072Z,97754.91
2023-03-21T23:33:41.890Z,97749.09
2023-03-21T23:36:12.314Z,97760.34
2023-03-21T23:38:41.430Z,97762.00
2023-03-21T23:41:12.027Z,97765.22
2023-03-21T23:43:41.300Z,97763.09
2023-03-21T23:46:12.008Z,97772.94
2023-03-21T23:48:42.244Z,97776.97
2023-03-21T23:51:12.735Z,97778.53
2023-03-21T23:53:41.659Z,97775.84
2023-03-21T23:56:24.764Z,97783.72
2023-03-21T23:58:53.543Z,97784.94
